Time;durP1;ratioP1;P1;durP2;ratioP2;P2;SDS_P1;SDS_P2;PMS_P1;PMS_P2;Temp;Humidity;BMP_temperature;BMP_pressure;BME280_temperature;BME280_humidity;BME280_pressure;Samples;Min_cycle;Max_cycle;Signal;HPM_P1;HPM_P2
2021/05/20 00:01:45;;;;;;;4.03;1.02;;;;;;;;;;5008973;28;20030;-61
2021/05/20 00:04:12;;;;;;;4.97;0.90;;;;;;;;;;5010778;28;20480;-61
2021/05/20 00:06:38;;;;;;;2.45;0.90;;;;;;;;;;5007302;28;20038;-61
2021/05/20 00:09:04;;;;;;;3.47;1.25;;;;;;;;;;5006516;28;20026;-61
2021/05/20 00:11:31;;;;;;;1.65;0.75;;;;;;;;;;5007293;28;20100;-61
2021/05/20 00:13:57;;;;;;;4.22;0.65;;;;;;;;;;5007427;28;20034;-61
2021/05/20 00:16:23;;;;;;;2.85;0.65;;;;;;;;;;5009751;28;20033;-61
2021/05/20 00:18:49;;;;;;;1.35;0.43;;;;;;;;;;5007332;28;20030;-61
2021/05/20 00:21:15;;;;;;;1.65;0.75;;;;;;;;;;5006804;28;20056;-61
2021/05/20 00:23:41;;;;;;;2.55;1.00;;;;;;;;;;5038495;28;20485;-61
2021/05/20 00:26:12;;;;;;;4.20;0.82;;;;;;;;;;5007325;28;20030;-61
2021/05/20 00:28:38;;;;;;;3.88;0.88;;;;;;;;;;5009085;28;20034;-61
2021/05/20 00:31:04;;;;;;;2.35;0.80;;;;;;;;;;5007620;28;20088;-61
2021/05/20 00:33:30;;;;;;;4.25;0.85;;;;;;;;;;5007019;28;20033;-60
2021/05/20 00:35:56;;;;;;;2.08;0.77;;;;;;;;;;5006796;28;20026;-60
2021/05/20 00:38:22;;;;;;;2.90;0.63;;;;;;;;;;5006906;28;20046;-61
2021/05/20 00:40:48;;;;;;;1.77;0.90;;;;;;;;;;5008712;28;20338;-61
2021/05/20 00:43:13;;;;;;;1.55;0.77;;;;;;;;;;5012867;28;20124;-61
2021/05/20 00:45:39;;;;;;;2.95;0.98;;;;;;;;;;5010422;28;20022;-61
2021/05/20 00:48:06;;;;;;;1.92;0.90;;;;;;;;;;5010356;28;20448;-61
2021/05/20 00:50:32;;;;;;;4.68;0.60;;;;;;;;;;5010112;28;20049;-61
2021/05/20 00:52:58;;;;;;;3.20;0.88;;;;;;;;;;5010291;28;20070;-60
2021/05/20 00:55:31;;;;;;;2.55;0.90;;;;;;;;;;5012367;28;20018;-61
2021/05/20 00:58:00;;;;;;;1.83;0.70;;;;;;;;;;5026408;28;20022;-61
2021/05/20 01:00:26;;;;;;;2.15;0.95;;;;;;;;;;5010031;28;20053;-61
2021/05/20 01:02:52;;;;;;;1.50;0.55;;;;;;;;;;5010176;28;20037;-61
2021/05/20 01:05:18;;;;;;;2.50;0.80;;;;;;;;;;5010079;28;20026;-61
2021/05/20 01:07:44;;;;;;;2.83;0.80;;;;;;;;;;5009343;28;20033;-61
2021/05/20 01:10:10;;;;;;;2.72;0.60;;;;;;;;;;5011579;28;20069;-61
2021/05/20 01:12:36;;;;;;;0.95;0.40;;;;;;;;;;5009922;28;20068;-61
2021/05/20 01:15:03;;;;;;;1.35;0.60;;;;;;;;;;5009675;28;20149;-60
2021/05/20 01:17:30;;;;;;;2.22;0.80;;;;;;;;;;5009526;28;20057;-61
2021/05/20 01:19:56;;;;;;;1.83;0.90;;;;;;;;;;5009128;28;20021;-60
2021/05/20 01:22:22;;;;;;;1.92;0.73;;;;;;;;;;5012585;28;20116;-61
2021/05/20 01:24:48;;;;;;;2.75;1.13;;;;;;;;;;5009502;28;20378;-61
2021/05/20 01:27:15;;;;;;;1.10;0.65;;;;;;;;;;5009784;28;20033;-61
2021/05/20 01:29:42;;;;;;;4.30;0.60;;;;;;;;;;5009076;28;20025;-61
2021/05/20 01:32:09;;;;;;;0.77;0.55;;;;;;;;;;5009574;28;20026;-61
2021/05/20 01:34:35;;;;;;;1.65;0.80;;;;;;;;;;5010965;28;20022;-61
2021/05/20 01:37:05;;;;;;;1.58;0.70;;;;;;;;;;5010467;28;20358;-61
2021/05/20 01:39:31;;;;;;;4.05;0.85;;;;;;;;;;5009104;28;20195;-61
2021/05/20 01:41:57;;;;;;;1.55;0.60;;;;;;;;;;5008792;28;20053;-61
2021/05/20 01:44:23;;;;;;;1.33;0.50;;;;;;;;;;5009124;28;20081;-61
2021/05/20 01:46:49;;;;;;;2.97;0.70;;;;;;;;;;5009524;28;20608;-61
2021/05/20 01:49:15;;;;;;;1.77;0.60;;;;;;;;;;5011879;28;20036;-61
2021/05/20 01:51:42;;;;;;;1.67;0.70;;;;;;;;;;5007979;28;20041;-61
2021/05/20 01:54:08;;;;;;;1.20;0.60;;;;;;;;;;5008144;28;20026;-61
2021/05/20 01:56:36;;;;;;;1.20;0.60;;;;;;;;;;5008991;28;20033;-61
2021/05/20 01:59:02;;;;;;;0.47;0.47;;;;;;;;;;5040543;28;20026;-61
2021/05/20 02:01:28;;;;;;;2.35;0.52;;;;;;;;;;5010893;28;20393;-61
2021/05/20 02:03:54;;;;;;;0.55;0.40;;;;;;;;;;5009382;28;20045;-61
2021/05/20 02:06:20;;;;;;;1.83;0.40;;;;;;;;;;5008524;28;20022;-61
2021/05/20 02:08:46;;;;;;;0.45;0.35;;;;;;;;;;5008135;28;20433;-61
2021/05/20 02:11:12;;;;;;;3.25;0.70;;;;;;;;;;5009034;28;20034;-62
2021/05/20 02:13:38;;;;;;;1.60;0.70;;;;;;;;;;5011388;28;20026;-62
2021/05/20 02:16:05;;;;;;;1.30;0.70;;;;;;;;;;5009912;28;20022;-60
2021/05/20 02:18:31;;;;;;;1.88;0.40;;;;;;;;;;5007955;28;20465;-59
2021/05/20 02:20:57;;;;;;;3.08;0.75;;;;;;;;;;5008410;28;20033;-60
2021/05/20 02:23:23;;;;;;;2.55;0.60;;;;;;;;;;5008109;28;20038;-60
2021/05/20 02:25:49;;;;;;;1.58;0.65;;;;;;;;;;5008900;28;20220;-60
2021/05/20 02:28:15;;;;;;;1.80;0.60;;;;;;;;;;5010621;28;20053;-60
2021/05/20 02:30:42;;;;;;;0.75;0.50;;;;;;;;;;5007342;28;20105;-60
2021/05/20 02:33:08;;;;;;;0.77;0.40;;;;;;;;;;5008055;28;20065;-60
2021/05/20 02:35:34;;;;;;;0.95;0.30;;;;;;;;;;5007851;28;20049;-60
2021/05/20 02:38:00;;;;;;;2.35;0.50;;;;;;;;;;5008231;28;20054;-60
2021/05/20 02:40:26;;;;;;;2.65;0.55;;;;;;;;;;5010752;28;20444;-60
2021/05/20 02:42:52;;;;;;;1.13;0.57;;;;;;;;;;5008491;28;20044;-60
2021/05/20 02:45:20;;;;;;;1.80;0.60;;;;;;;;;;5007901;28;20388;-60
2021/05/20 02:47:47;;;;;;;6.70;1.08;;;;;;;;;;5007734;28;20034;-60
2021/05/20 02:50:14;;;;;;;0.65;0.40;;;;;;;;;;5007587;28;20100;-60
2021/05/20 02:52:43;;;;;;;1.95;0.80;;;;;;;;;;5009778;28;20014;-59
2021/05/20 02:55:10;;;;;;;0.93;0.60;;;;;;;;;;5025332;28;20088;-60
2021/05/20 02:57:36;;;;;;;1.83;0.40;;;;;;;;;;5007276;28;20037;-61
2021/05/20 03:00:02;;;;;;;3.47;0.60;;;;;;;;;;5007629;28;20064;-59
2021/05/20 03:02:28;;;;;;;0.73;0.43;;;;;;;;;;5007845;28;20061;-60
2021/05/20 03:04:53;;;;;;;0.98;0.30;;;;;;;;;;5007370;28;20049;-60
2021/05/20 03:07:20;;;;;;;2.30;0.65;;;;;;;;;;5011216;28;20409;-59
2021/05/20 03:09:45;;;;;;;2.65;0.77;;;;;;;;;;5007760;28;20026;-59
2021/05/20 03:12:11;;;;;;;2.65;0.80;;;;;;;;;;5007404;28;20172;-59
2021/05/20 03:14:37;;;;;;;1.58;0.50;;;;;;;;;;5007505;28;20033;-60
2021/05/20 03:17:09;;;;;;;2.92;0.63;;;;;;;;;;5007380;28;20045;-60
2021/05/20 03:19:35;;;;;;;1.95;0.75;;;;;;;;;;5009879;28;20022;-60
2021/05/20 03:22:01;;;;;;;1.10;0.50;;;;;;;;;;5008432;28;20040;-60
2021/05/20 03:24:27;;;;;;;1.08;0.60;;;;;;;;;;5007772;28;20033;-60
2021/05/20 03:26:53;;;;;;;1.67;0.50;;;;;;;;;;5007073;28;20026;-60
2021/05/20 03:29:19;;;;;;;2.55;0.60;;;;;;;;;;5007082;28;20046;-59
2021/05/20 03:31:45;;;;;;;1.85;0.60;;;;;;;;;;5008815;28;20030;-60
2021/05/20 03:34:11;;;;;;;1.45;0.60;;;;;;;;;;5009638;28;20040;-60
2021/05/20 03:36:37;;;;;;;2.13;0.40;;;;;;;;;;5005815;28;20080;-59
2021/05/20 03:39:04;;;;;;;1.30;0.52;;;;;;;;;;5005582;28;20048;-61
2021/05/20 03:41:30;;;;;;;1.55;0.65;;;;;;;;;;5005947;28;20050;-60
2021/05/20 03:43:56;;;;;;;0.50;0.40;;;;;;;;;;5008430;28;20061;-60
2021/05/20 03:46:22;;;;;;;2.40;0.68;;;;;;;;;;5031569;28;20038;-60
2021/05/20 03:48:48;;;;;;;2.10;1.13;;;;;;;;;;5028493;28;20034;-60
2021/05/20 03:51:14;;;;;;;1.92;0.70;;;;;;;;;;5007690;28;20075;-60
2021/05/20 03:53:40;;;;;;;2.45;0.45;;;;;;;;;;5007592;28;20432;-60
2021/05/20 03:56:06;;;;;;;0.65;0.50;;;;;;;;;;5007696;28;20026;-59
2021/05/20 03:58:32;;;;;;;1.30;0.60;;;;;;;;;;5009166;28;20026;-59
2021/05/20 04:00:58;;;;;;;1.95;0.73;;;;;;;;;;5008527;28;20025;-60
2021/05/20 04:03:27;;;;;;;0.93;0.55;;;;;;;;;;5007471;28;20042;-59
2021/05/20 04:05:57;;;;;;;1.73;0.57;;;;;;;;;;5007395;28;20033;-60
2021/05/20 04:08:23;;;;;;;1.70;0.70;;;;;;;;;;5007650;28;20458;-60
2021/05/20 04:10:49;;;;;;;3.00;0.70;;;;;;;;;;5007469;28;20076;-60
2021/05/20 04:13:28;;;;;;;1.42;0.55;;;;;;;;;;5009935;28;20064;-60
2021/05/20 04:15:54;;;;;;;1.55;0.77;;;;;;;;;;5011426;28;20479;-60
2021/05/20 04:18:21;;;;;;;2.63;0.57;;;;;;;;;;5010743;28;20038;-60
2021/05/20 04:20:47;;;;;;;2.97;1.25;;;;;;;;;;5011025;28;20049;-60
2021/05/20 04:23:13;;;;;;;2.05;1.02;;;;;;;;;;5010794;28;20069;-60
2021/05/20 04:25:39;;;;;;;0.93;0.50;;;;;;;;;;5013127;28;20022;-60
2021/05/20 04:28:05;;;;;;;1.83;0.70;;;;;;;;;;5012206;28;20469;-60
2021/05/20 04:30:31;;;;;;;1.10;0.50;;;;;;;;;;5010501;28;20437;-59
2021/05/20 04:32:57;;;;;;;1.60;0.50;;;;;;;;;;5011230;28;20021;-60
2021/05/20 04:35:23;;;;;;;0.82;0.40;;;;;;;;;;5011263;28;20147;-59
2021/05/20 04:37:48;;;;;;;3.30;0.50;;;;;;;;;;5011033;28;20108;-60
2021/05/20 04:40:15;;;;;;;2.22;0.50;;;;;;;;;;5013507;28;20029;-60
2021/05/20 04:42:41;;;;;;;1.95;0.45;;;;;;;;;;5009814;28;20042;-60
2021/05/20 04:45:07;;;;;;;0.43;0.28;;;;;;;;;;5009605;28;20030;-59
2021/05/20 04:47:33;;;;;;;0.82;0.40;;;;;;;;;;5010000;28;20037;-60
2021/05/20 04:49:59;;;;;;;0.52;0.20;;;;;;;;;;5010502;28;20023;-60
2021/05/20 04:52:25;;;;;;;1.35;0.45;;;;;;;;;;5013334;28;20048;-60
2021/05/20 04:54:51;;;;;;;2.08;0.70;;;;;;;;;;5010995;28;20072;-59
2021/05/20 04:57:17;;;;;;;2.65;0.60;;;;;;;;;;5009415;28;20390;-62
2021/05/20 04:59:43;;;;;;;0.75;0.52;;;;;;;;;;5010166;28;20084;-60
2021/05/20 05:02:09;;;;;;;1.90;0.63;;;;;;;;;;5010003;28;20440;-60
2021/05/20 05:04:35;;;;;;;2.97;0.60;;;;;;;;;;5011971;28;20113;-60
2021/05/20 05:07:01;;;;;;;2.03;0.70;;;;;;;;;;5011163;28;20453;-60
2021/05/20 05:09:27;;;;;;;3.30;0.55;;;;;;;;;;5010056;28;20407;-59
2021/05/20 05:11:53;;;;;;;2.05;0.82;;;;;;;;;;5009538;28;20018;-60
2021/05/20 05:14:19;;;;;;;1.67;0.70;;;;;;;;;;5009434;28;20462;-60
2021/05/20 05:16:45;;;;;;;1.67;0.68;;;;;;;;;;5011055;28;20045;-60
2021/05/20 05:19:11;;;;;;;2.30;0.70;;;;;;;;;;5011977;28;20073;-60
2021/05/20 05:21:37;;;;;;;0.95;0.50;;;;;;;;;;5009435;28;20377;-59
2021/05/20 05:24:03;;;;;;;0.70;0.50;;;;;;;;;;5009168;28;20049;-59
2021/05/20 05:26:29;;;;;;;1.58;0.60;;;;;;;;;;5009035;28;20018;-60
2021/05/20 05:28:55;;;;;;;4.97;0.90;;;;;;;;;;5009678;28;20025;-59
2021/05/20 05:31:24;;;;;;;0.98;0.57;;;;;;;;;;5012638;28;20445;-60
2021/05/20 05:33:50;;;;;;;2.10;0.70;;;;;;;;;;5011007;28;20025;-60
2021/05/20 05:36:16;;;;;;;2.75;0.68;;;;;;;;;;5009185;28;20470;-60
2021/05/20 05:38:42;;;;;;;4.72;0.80;;;;;;;;;;5008732;28;20466;-59
2021/05/20 05:41:08;;;;;;;2.20;0.70;;;;;;;;;;5009431;28;20160;-60
2021/05/20 05:43:34;;;;;;;5.22;0.90;;;;;;;;;;5011579;28;20049;-60
2021/05/20 05:46:00;;;;;;;0.75;0.50;;;;;;;;;;5010441;28;20022;-60
2021/05/20 05:48:26;;;;;;;1.95;0.52;;;;;;;;;;5010200;28;20105;-60
2021/05/20 05:50:55;;;;;;;3.92;0.93;;;;;;;;;;5009329;28;20030;-60
2021/05/20 05:53:21;;;;;;;1.80;0.70;;;;;;;;;;5010270;28;20025;-60
2021/05/20 05:55:47;;;;;;;0.55;0.35;;;;;;;;;;5010686;28;20022;-60
2021/05/20 05:58:13;;;;;;;1.90;0.60;;;;;;;;;;5012688;28;20034;-60
2021/05/20 06:00:39;;;;;;;2.67;0.70;;;;;;;;;;5008961;28;20018;-60
2021/05/20 06:03:05;;;;;;;1.67;0.70;;;;;;;;;;5009730;28;20480;-60
2021/05/20 06:05:31;;;;;;;1.45;0.70;;;;;;;;;;5009697;28;20022;-60
2021/05/20 06:07:57;;;;;;;2.42;0.60;;;;;;;;;;5009916;28;20533;-60
2021/05/20 06:10:23;;;;;;;0.57;0.50;;;;;;;;;;5011825;28;20140;-60
2021/05/20 06:12:50;;;;;;;2.25;0.50;;;;;;;;;;5010642;28;20030;-60
2021/05/20 06:15:16;;;;;;;1.73;0.55;;;;;;;;;;5008269;28;20064;-60
2021/05/20 06:17:42;;;;;;;0.80;0.50;;;;;;;;;;5009324;28;20494;-60
2021/05/20 06:20:09;;;;;;;2.13;0.70;;;;;;;;;;4993434;28;20045;-60
2021/05/20 06:22:35;;;;;;;2.65;0.70;;;;;;;;;;4986984;28;20372;-60
2021/05/20 06:25:01;;;;;;;1.17;0.60;;;;;;;;;;5008947;28;20032;-60
2021/05/20 06:27:27;;;;;;;1.58;0.50;;;;;;;;;;4991623;28;20014;-60
2021/05/20 06:29:54;;;;;;;1.08;0.50;;;;;;;;;;4996718;28;20026;-59
2021/05/20 06:32:20;;;;;;;1.58;0.63;;;;;;;;;;5006515;28;20022;-59
2021/05/20 06:34:46;;;;;;;2.90;1.13;;;;;;;;;;5009062;28;20109;-60
2021/05/20 06:37:12;;;;;;;2.17;0.60;;;;;;;;;;5010088;28;20114;-60
2021/05/20 06:39:39;;;;;;;1.80;0.77;;;;;;;;;;5008716;28;20045;-60
2021/05/20 06:42:08;;;;;;;0.77;0.47;;;;;;;;;;5008660;28;20061;-60
2021/05/20 06:44:33;;;;;;;1.85;0.40;;;;;;;;;;5008059;28;20508;-60
2021/05/20 06:46:59;;;;;;;2.58;0.52;;;;;;;;;;5008587;28;20054;-59
2021/05/20 06:49:25;;;;;;;1.75;0.52;;;;;;;;;;5007803;28;20462;-59
2021/05/20 06:51:51;;;;;;;1.33;0.60;;;;;;;;;;5007931;28;20039;-59
2021/05/20 06:54:17;;;;;;;0.60;0.50;;;;;;;;;;5008038;28;20116;-61
2021/05/20 06:56:48;;;;;;;1.10;0.43;;;;;;;;;;5008748;28;20037;-61
2021/05/20 07:01:59;;;;;;;1.80;0.60;;;;;;;;;;5006628;28;20033;-59
2021/05/20 07:04:25;;;;;;;1.75;0.50;;;;;;;;;;5008958;28;20393;-59
2021/05/20 07:06:51;;;;;;;0.73;0.50;;;;;;;;;;5007906;28;20109;-60
2021/05/20 07:09:17;;;;;;;4.15;0.70;;;;;;;;;;5008015;28;20033;-59
2021/05/20 07:11:43;;;;;;;0.77;0.40;;;;;;;;;;5007304;28;20026;-59
2021/05/20 07:14:10;;;;;;;1.33;0.50;;;;;;;;;;5008477;28;20057;-59
2021/05/20 07:16:36;;;;;;;0.70;0.40;;;;;;;;;;5008201;28;20025;-60
2021/05/20 07:19:02;;;;;;;1.55;0.52;;;;;;;;;;5008688;28;20029;-60
2021/05/20 07:21:28;;;;;;;0.95;0.50;;;;;;;;;;5007443;28;20037;-60
2021/05/20 07:23:54;;;;;;;1.55;0.50;;;;;;;;;;5007604;28;20110;-60
2021/05/20 07:26:20;;;;;;;1.30;0.40;;;;;;;;;;5007654;28;20470;-59
2021/05/20 07:28:46;;;;;;;3.30;0.40;;;;;;;;;;5008957;28;20210;-60
2021/05/20 07:31:12;;;;;;;0.30;0.30;;;;;;;;;;5009813;28;20120;-60
2021/05/20 07:33:38;;;;;;;0.20;0.20;;;;;;;;;;5007287;28;20416;-60
2021/05/20 07:36:06;;;;;;;0.40;0.30;;;;;;;;;;5006906;28;20545;-60
2021/05/20 07:38:32;;;;;;;1.70;0.50;;;;;;;;;;5007744;28;20049;-60
2021/05/20 07:40:58;;;;;;;2.65;0.40;;;;;;;;;;5008072;28;20125;-60
2021/05/20 07:43:24;;;;;;;1.45;0.20;;;;;;;;;;5007530;28;20046;-60
2021/05/20 07:45:51;;;;;;;0.82;0.40;;;;;;;;;;5006509;28;20032;-60
2021/05/20 07:48:18;;;;;;;0.30;0.30;;;;;;;;;;5007361;28;20508;-60
2021/05/20 07:50:44;;;;;;;1.17;0.50;;;;;;;;;;5008100;28;20030;-60
2021/05/20 07:53:12;;;;;;;1.73;0.40;;;;;;;;;;5011449;28;20037;-60
2021/05/20 07:55:39;;;;;;;0.20;0.20;;;;;;;;;;5013234;28;20093;-60
2021/05/20 07:58:05;;;;;;;2.05;0.40;;;;;;;;;;5012538;28;20570;-60
2021/05/20 08:00:31;;;;;;;3.05;0.40;;;;;;;;;;5011451;28;20457;-60
2021/05/20 08:11:13;;;;;;;0.45;0.35;;;;;;;;;;5011199;28;20031;-61
2021/05/20 08:13:39;;;;;;;1.15;0.40;;;;;;;;;;5013020;28;20146;-60
2021/05/20 08:16:05;;;;;;;1.73;0.25;;;;;;;;;;5012544;28;20072;-60
2021/05/20 08:18:31;;;;;;;0.60;0.17;;;;;;;;;;5010401;28;20022;-60
2021/05/20 08:20:57;;;;;;;0.52;0.20;;;;;;;;;;5012053;28;20030;-60
2021/05/20 08:23:23;;;;;;;0.28;0.28;;;;;;;;;;5010054;28;20463;-59
2021/05/20 08:25:49;;;;;;;0.20;0.20;;;;;;;;;;5011215;28;20044;-59
2021/05/20 08:28:16;;;;;;;0.45;0.22;;;;;;;;;;5028487;28;20552;-59
2021/05/20 08:30:42;;;;;;;0.43;0.30;;;;;;;;;;5009852;28;20030;-59
2021/05/20 08:33:08;;;;;;;0.88;0.20;;;;;;;;;;5008664;28;20036;-59
2021/05/20 08:35:34;;;;;;;1.42;0.10;;;;;;;;;;5009211;28;20068;-60
2021/05/20 08:38:00;;;;;;;0.95;0.28;;;;;;;;;;5010008;28;20116;-60
2021/05/20 08:40:26;;;;;;;0.40;0.20;;;;;;;;;;5013111;28;20100;-59
2021/05/20 08:42:52;;;;;;;2.70;0.20;;;;;;;;;;5010710;28;20385;-59
2021/05/20 08:45:20;;;;;;;0.40;0.20;;;;;;;;;;5009828;28;20026;-59
2021/05/20 08:47:47;;;;;;;0.38;0.10;;;;;;;;;;5009486;28;20781;-59
2021/05/20 08:50:13;;;;;;;0.20;0.20;;;;;;;;;;5010004;28;20027;-59
2021/05/20 08:52:40;;;;;;;0.50;0.20;;;;;;;;;;5012991;28;20033;-59
2021/05/20 08:55:11;;;;;;;1.08;0.20;;;;;;;;;;5011676;28;20045;-59
2021/05/20 08:57:37;;;;;;;0.43;0.10;;;;;;;;;;5009357;28;20050;-59
2021/05/20 09:00:08;;;;;;;0.50;0.20;;;;;;;;;;5008882;28;20523;-59
2021/05/20 09:02:34;;;;;;;0.30;0.20;;;;;;;;;;4999005;28;20034;-59
2021/05/20 09:05:02;;;;;;;3.30;0.32;;;;;;;;;;5010057;28;20069;-64
2021/05/20 09:07:34;;;;;;;0.10;0.10;;;;;;;;;;5010744;28;20109;-64
2021/05/20 09:10:07;;;;;;;0.52;0.30;;;;;;;;;;5012823;28;20030;-64
2021/05/20 09:12:33;;;;;;;0.20;0.17;;;;;;;;;;5005428;28;20076;-64
2021/05/20 09:14:59;;;;;;;1.58;0.20;;;;;;;;;;5008058;28;20058;-64
2021/05/20 09:17:25;;;;;;;0.50;0.20;;;;;;;;;;5008823;28;20068;-66
2021/05/20 09:19:55;;;;;;;0.93;0.20;;;;;;;;;;5010490;28;20080;-66
2021/05/20 09:22:21;;;;;;;0.20;0.20;;;;;;;;;;5009993;28;20071;-66
2021/05/20 09:24:49;;;;;;;0.10;0.10;;;;;;;;;;5009104;28;20030;-64
2021/05/20 09:27:24;;;;;;;0.40;0.13;;;;;;;;;;5008907;28;20125;-65
2021/05/20 09:30:09;;;;;;;0.13;0.10;;;;;;;;;;5002373;28;20056;-67
2021/05/20 09:32:35;;;;;;;0.10;0.10;;;;;;;;;;4999744;28;20117;-64
2021/05/20 09:35:02;;;;;;;1.27;0.30;;;;;;;;;;5009321;28;20497;-66
2021/05/20 09:37:28;;;;;;;0.43;0.20;;;;;;;;;;5011304;28;20121;-66
2021/05/20 09:40:01;;;;;;;0.32;0.10;;;;;;;;;;5004924;28;20121;-66
2021/05/20 09:42:36;;;;;;;0.75;0.10;;;;;;;;;;5007731;28;20018;-66
2021/05/20 09:45:06;;;;;;;0.10;0.10;;;;;;;;;;5009128;28;20025;-66
2021/05/20 09:47:32;;;;;;;0.10;0.10;;;;;;;;;;5008770;28;20044;-66
2021/05/20 09:50:00;;;;;;;0.63;0.45;;;;;;;;;;5009729;28;20433;-66
2021/05/20 09:52:26;;;;;;;0.10;0.10;;;;;;;;;;5010487;28;20090;-66
2021/05/20 09:54:52;;;;;;;0.75;0.10;;;;;;;;;;5009511;28;20397;-65
2021/05/20 09:57:26;;;;;;;0.43;0.10;;;;;;;;;;5007272;28;20041;-65
2021/05/20 10:00:10;;;;;;;0.50;0.10;;;;;;;;;;5001720;28;20482;-65
2021/05/20 10:02:37;;;;;;;1.50;0.30;;;;;;;;;;4999635;28;20030;-63
2021/05/20 10:05:19;;;;;;;0.03;0.03;;;;;;;;;;5009170;28;20060;-64
2021/05/20 10:07:46;;;;;;;0.80;0.17;;;;;;;;;;5009436;28;20044;-63
2021/05/20 10:10:12;;;;;;;0.73;0.10;;;;;;;;;;5011208;28;20132;-63
2021/05/20 10:12:39;;;;;;;1.02;0.20;;;;;;;;;;5008484;28;20053;-65
2021/05/20 10:15:07;;;;;;;0.10;0.10;;;;;;;;;;5009444;28;20108;-65
2021/05/20 10:17:34;;;;;;;0.63;0.20;;;;;;;;;;5007088;28;20050;-65
2021/05/20 10:20:01;;;;;;;1.13;0.20;;;;;;;;;;5008482;28;20022;-66
2021/05/20 10:22:28;;;;;;;0.20;0.20;;;;;;;;;;5011161;28;20310;-65
2021/05/20 10:24:56;;;;;;;0.43;0.20;;;;;;;;;;5009315;28;20041;-65
2021/05/20 10:27:22;;;;;;;1.73;0.30;;;;;;;;;;5008611;28;20026;-65
2021/05/20 10:29:48;;;;;;;0.00;0.00;;;;;;;;;;5008281;28;20409;-64
2021/05/20 10:32:16;;;;;;;0.10;0.10;;;;;;;;;;5008544;28;20023;-65
2021/05/20 10:34:58;;;;;;;0.10;0.10;;;;;;;;;;5009811;28;20034;-65
2021/05/20 10:37:27;;;;;;;0.17;0.17;;;;;;;;;;5007246;28;20034;-65
2021/05/20 10:39:53;;;;;;;0.52;0.20;;;;;;;;;;5008890;28;20057;-63
2021/05/20 10:42:33;;;;;;;0.20;0.10;;;;;;;;;;5007744;28;20021;-65
2021/05/20 10:45:14;;;;;;;0.43;0.20;;;;;;;;;;5007879;28;20030;-65
2021/05/20 10:47:59;;;;;;;0.63;0.30;;;;;;;;;;5008134;28;20104;-65
2021/05/20 10:50:45;;;;;;;1.45;0.30;;;;;;;;;;5006328;28;20389;-65
2021/05/20 10:53:11;;;;;;;0.10;0.10;;;;;;;;;;4995102;28;20029;-65
2021/05/20 10:55:38;;;;;;;0.20;0.10;;;;;;;;;;5010501;28;20440;-65
2021/05/20 10:58:04;;;;;;;0.57;0.20;;;;;;;;;;5008510;28;20504;-65
2021/05/20 11:00:30;;;;;;;0.15;0.15;;;;;;;;;;5007764;28;20091;-65
2021/05/20 11:02:58;;;;;;;0.57;0.30;;;;;;;;;;5007765;28;20489;-65
2021/05/20 11:05:24;;;;;;;;;;;;;;;;;;5008331;28;20068;-65
2021/05/20 11:07:50;;;;;;;1.42;0.30;;;;;;;;;;5008426;28;20339;-65
2021/05/20 11:10:20;;;;;;;0.30;0.20;;;;;;;;;;5009573;28;20026;-65
2021/05/20 11:12:57;;;;;;;0.28;0.15;;;;;;;;;;5007679;28;20028;-65
2021/05/20 11:15:24;;;;;;;0.13;0.13;;;;;;;;;;5006998;28;20026;-65
2021/05/20 11:17:50;;;;;;;1.10;0.30;;;;;;;;;;5005545;28;20268;-65
2021/05/20 11:20:25;;;;;;;0.10;0.10;;;;;;;;;;5006171;28;20029;-65
2021/05/20 11:23:09;;;;;;;0.32;0.30;;;;;;;;;;5007849;28;20034;-65
2021/05/20 11:25:36;;;;;;;0.10;0.10;;;;;;;;;;5006612;28;20421;-65
2021/05/20 11:28:07;;;;;;;0.20;0.20;;;;;;;;;;5005790;28;20033;-65
2021/05/20 11:30:33;;;;;;;0.63;0.20;;;;;;;;;;5006113;28;20389;-65
2021/05/20 11:33:01;;;;;;;0.20;0.20;;;;;;;;;;5007497;28;20034;-65
2021/05/20 11:36:28;;;;;;;0.43;0.20;;;;;;;;;;5006730;28;20026;-65
2021/05/20 11:38:26;;;;;;;0.30;0.30;;;;;;;;;;5006956;28;20137;-65
2021/05/20 11:40:52;;;;;;;0.57;0.35;;;;;;;;;;4993003;28;20030;-65
2021/05/20 11:43:26;;;;;;;0.47;0.25;;;;;;;;;;5007230;28;20041;-65
2021/05/20 11:45:52;;;;;;;0.90;0.25;;;;;;;;;;5007850;28;20037;-65
2021/05/20 11:48:18;;;;;;;1.70;0.40;;;;;;;;;;5005496;28;20117;-65
2021/05/20 11:50:51;;;;;;;1.95;0.20;;;;;;;;;;5007016;28;20037;-65
2021/05/20 11:53:17;;;;;;;1.17;0.28;;;;;;;;;;5008412;28;20021;-65
2021/05/20 11:55:45;;;;;;;0.43;0.20;;;;;;;;;;5009197;28;20473;-65
2021/05/20 11:58:11;;;;;;;0.63;0.30;;;;;;;;;;5009533;28;20022;-65
2021/05/20 12:00:37;;;;;;;0.20;0.20;;;;;;;;;;5007076;28;20025;-65
2021/05/20 12:03:04;;;;;;;0.50;0.20;;;;;;;;;;5007401;28;20473;-65
2021/05/20 12:05:30;;;;;;;0.10;0.10;;;;;;;;;;5007740;28;20178;-65
2021/05/20 12:07:56;;;;;;;1.52;0.35;;;;;;;;;;5007682;28;20030;-65
2021/05/20 12:10:22;;;;;;;0.90;0.25;;;;;;;;;;5010582;28;20373;-65
2021/05/20 12:12:56;;;;;;;0.93;0.30;;;;;;;;;;5006926;28;20537;-65
2021/05/20 12:15:23;;;;;;;2.10;0.30;;;;;;;;;;5006262;28;20022;-65
2021/05/20 12:17:51;;;;;;;0.20;0.20;;;;;;;;;;5007091;28;20014;-65
2021/05/20 12:20:21;;;;;;;0.80;0.30;;;;;;;;;;5007259;28;20040;-65
2021/05/20 12:22:48;;;;;;;1.30;0.30;;;;;;;;;;5008100;28;20117;-65
2021/05/20 12:25:18;;;;;;;1.67;0.38;;;;;;;;;;5009667;28;20061;-65
2021/05/20 12:27:46;;;;;;;1.13;0.30;;;;;;;;;;5007394;28;20030;-65
2021/05/20 12:30:12;;;;;;;0.77;0.38;;;;;;;;;;5006965;28;20105;-65
2021/05/20 12:32:45;;;;;;;1.80;0.22;;;;;;;;;;5007355;28;20083;-65
2021/05/20 12:35:21;;;;;;;0.63;0.20;;;;;;;;;;5007376;28;20062;-65
2021/05/20 12:37:47;;;;;;;1.17;0.20;;;;;;;;;;5010997;28;20054;-65
2021/05/20 12:40:15;;;;;;;0.47;0.30;;;;;;;;;;5012859;28;20566;-65
2021/05/20 12:42:41;;;;;;;1.75;0.30;;;;;;;;;;5010879;28;20026;-65
2021/05/20 12:45:07;;;;;;;0.20;0.20;;;;;;;;;;5009553;28;20048;-65
2021/05/20 12:47:45;;;;;;;0.30;0.10;;;;;;;;;;5010396;28;20030;-65
2021/05/20 12:50:11;;;;;;;0.70;0.20;;;;;;;;;;5010339;28;20037;-65
2021/05/20 12:52:53;;;;;;;0.35;0.25;;;;;;;;;;5013052;28;20024;-65
2021/05/20 12:55:19;;;;;;;0.65;0.30;;;;;;;;;;5013469;28;20454;-65
2021/05/20 12:57:54;;;;;;;1.42;0.20;;;;;;;;;;5008273;28;20449;-65
2021/05/20 13:00:20;;;;;;;0.20;0.20;;;;;;;;;;5007852;28;20041;-65
2021/05/20 13:02:57;;;;;;;1.48;0.13;;;;;;;;;;5009814;28;20584;-65
2021/05/20 13:05:24;;;;;;;0.50;0.25;;;;;;;;;;5010728;28;20033;-65
2021/05/20 13:07:50;;;;;;;1.70;0.25;;;;;;;;;;5010661;28;20126;-65
2021/05/20 13:10:31;;;;;;;0.40;0.17;;;;;;;;;;5010419;28;20057;-65
2021/05/20 13:12:57;;;;;;;0.30;0.30;;;;;;;;;;5012040;28;20133;-65
2021/05/20 13:15:23;;;;;;;0.93;0.22;;;;;;;;;;5010185;28;20109;-65
2021/05/20 13:18:18;;;;;;;1.17;0.20;;;;;;;;;;5008991;28;20026;-65
2021/05/20 13:23:28;;;;;;;0.80;0.30;;;;;;;;;;5009287;28;20195;-65
2021/05/20 13:25:54;;;;;;;1.60;0.30;;;;;;;;;;4994197;28;20061;-65
2021/05/20 13:28:20;;;;;;;2.40;0.40;;;;;;;;;;5012413;28;20069;-65
2021/05/20 13:30:58;;;;;;;0.57;0.30;;;;;;;;;;5007456;28;20030;-65
2021/05/20 13:33:36;;;;;;;0.95;0.20;;;;;;;;;;5006500;28;20432;-65
2021/05/20 13:36:03;;;;;;;;;;;;;;;;;;5003750;28;20492;-65
2021/05/20 13:38:29;;;;;;;1.70;0.30;;;;;;;;;;5002103;28;20149;-65
2021/05/20 13:40:57;;;;;;;0.40;0.30;;;;;;;;;;5009015;28;20430;-65
2021/05/20 13:43:23;;;;;;;1.38;0.43;;;;;;;;;;5011538;28;20164;-65
2021/05/20 13:45:50;;;;;;;2.17;0.30;;;;;;;;;;5011985;28;20026;-65
2021/05/20 13:48:16;;;;;;;0.43;0.20;;;;;;;;;;5009378;28;20575;-65
2021/05/20 13:50:46;;;;;;;1.52;0.40;;;;;;;;;;5009075;28;20480;-65
2021/05/20 13:53:12;;;;;;;1.13;0.30;;;;;;;;;;5009050;28;20100;-65
2021/05/20 13:55:40;;;;;;;1.42;0.20;;;;;;;;;;5011459;28;20168;-65
2021/05/20 13:58:09;;;;;;;4.00;0.30;;;;;;;;;;5010230;28;20161;-65
2021/05/20 14:00:36;;;;;;;1.65;0.30;;;;;;;;;;5008960;28;20022;-65
2021/05/20 14:03:03;;;;;;;1.80;0.55;;;;;;;;;;5009016;28;20042;-65
2021/05/20 14:05:30;;;;;;;0.35;0.30;;;;;;;;;;5008570;28;20022;-65
2021/05/20 14:07:56;;;;;;;0.28;0.28;;;;;;;;;;5008185;28;20436;-65
2021/05/20 14:10:23;;;;;;;1.58;0.40;;;;;;;;;;5011064;28;20571;-65
2021/05/20 14:12:49;;;;;;;0.65;0.43;;;;;;;;;;5007968;28;20033;-65
2021/05/20 14:15:15;;;;;;;0.28;0.28;;;;;;;;;;5009727;28;20508;-65
2021/05/20 14:17:45;;;;;;;0.73;0.30;;;;;;;;;;5007048;28;20107;-65
2021/05/20 14:20:12;;;;;;;0.75;0.40;;;;;;;;;;5008143;28;20053;-65
2021/05/20 14:22:39;;;;;;;1.02;0.30;;;;;;;;;;5010460;28;20038;-65
2021/05/20 14:25:05;;;;;;;0.82;0.40;;;;;;;;;;5010199;28;20413;-65
2021/05/20 14:27:31;;;;;;;1.70;0.30;;;;;;;;;;5008254;28;20061;-65
2021/05/20 14:29:57;;;;;;;1.17;0.50;;;;;;;;;;5008395;28;20080;-65
2021/05/20 14:32:25;;;;;;;2.33;0.40;;;;;;;;;;5004395;28;20067;-65
2021/05/20 14:34:51;;;;;;;1.15;0.40;;;;;;;;;;5010227;28;20026;-65
2021/05/20 14:37:19;;;;;;;1.17;0.30;;;;;;;;;;5011943;28;20022;-65
2021/05/20 14:39:46;;;;;;;0.80;0.30;;;;;;;;;;5007486;28;20030;-66
2021/05/20 14:42:12;;;;;;;1.83;0.40;;;;;;;;;;5007825;28;20036;-65
2021/05/20 14:44:38;;;;;;;0.32;0.22;;;;;;;;;;5006187;28;20481;-65
2021/05/20 14:47:05;;;;;;;0.98;0.40;;;;;;;;;;5007034;28;20489;-65
2021/05/20 14:52:41;;;;;;;1.35;0.20;;;;;;;;;;5005725;28;20030;-62
2021/05/20 14:55:19;;;;;;;1.88;0.40;;;;;;;;;;5001542;28;20124;-63
2021/05/20 15:06:13;;;;;;;1.67;0.70;;;;;;;;;;5002539;28;20073;-64
2021/05/20 15:08:41;;;;;;;0.73;0.30;;;;;;;;;;5006591;28;20056;-64
2021/05/20 15:13:43;;;;;;;0.93;0.45;;;;;;;;;;5008000;28;20040;-63